Time;durP1;ratioP1;P1;durP2;ratioP2;P2;SDS_P1;SDS_P2;PMS_P1;PMS_P2;Temp;Humidity;BMP_temperature;BMP_pressure;BME280_temperature;BME280_humidity;BME280_pressure;Samples;Min_cycle;Max_cycle;Signal;HPM_P1;HPM_P2
2022/01/08 00:01:18;;;;;;;49.72;24.27;;;0.00;99.90;;;;;;4981977;28;20034;-88
2022/01/08 00:03:44;;;;;;;52.72;24.77;;;0.00;99.90;;;;;;4981968;28;20034;-87
2022/01/08 00:06:25;;;;;;;52.60;22.67;;;0.00;99.90;;;;;;4981495;28;20030;-88
2022/01/08 00:08:50;;;;;;;53.63;24.30;;;0.00;99.90;;;;;;4983069;28;20085;-87
2022/01/08 00:11:24;;;;;;;49.72;24.80;;;0.00;99.90;;;;;;4981653;28;20489;-88
2022/01/08 00:13:50;;;;;;;51.35;23.58;;;0.00;99.90;;;;;;4983513;28;20026;-88
2022/01/08 00:16:15;;;;;;;52.97;23.33;;;0.00;99.90;;;;;;4985029;28;20040;-87
2022/01/08 00:18:41;;;;;;;51.97;23.02;;;0.00;99.90;;;;;;4985435;28;20026;-87
2022/01/08 00:21:07;;;;;;;55.45;22.30;;;0.00;99.90;;;;;;4986502;28;20037;-88
2022/01/08 00:23:33;;;;;;;52.47;23.17;;;0.00;99.90;;;;;;5001058;28;20041;-87
2022/01/08 00:25:58;;;;;;;46.17;21.83;;;0.00;99.90;;;;;;4985000;28;20045;-88
2022/01/08 00:28:26;;;;;;;39.17;20.63;;;0.00;99.90;;;;;;5001745;28;20500;-88
2022/01/08 00:30:52;;;;;;;47.35;21.17;;;0.00;99.90;;;;;;4985312;28;20245;-88
2022/01/08 00:33:19;;;;;;;48.70;19.13;;;0.00;99.90;;;;;;4987706;28;20034;-88
2022/01/08 00:35:45;;;;;;;37.05;19.65;;;0.00;99.90;;;;;;5003442;28;20030;-88
2022/01/08 00:38:11;;;;;;;37.03;19.52;;;0.00;99.90;;;;;;4984858;28;20109;-88
2022/01/08 00:40:37;;;;;;;37.10;17.05;;;0.00;99.90;;;;;;4988244;28;20034;-87
2022/01/08 00:43:03;;;;;;;32.85;18.13;;;0.00;99.90;;;;;;4986162;28;20425;-89
2022/01/08 00:45:29;;;;;;;33.65;18.15;;;0.00;99.90;;;;;;4986122;28;20026;-88
2022/01/08 00:47:54;;;;;;;36.47;17.88;;;0.00;99.90;;;;;;4986121;28;20037;-88
2022/01/08 00:50:21;;;;;;;33.15;16.63;;;0.00;99.90;;;;;;5000982;28;20489;-88
2022/01/08 00:52:47;;;;;;;29.33;16.05;;;0.00;99.90;;;;;;4984038;28;20030;-89
2022/01/08 00:55:14;;;;;;;27.35;14.35;;;0.00;99.90;;;;;;4984417;28;20044;-88
2022/01/08 00:57:40;;;;;;;24.20;13.95;;;0.00;99.90;;;;;;4984442;28;20040;-87
2022/01/08 01:00:09;;;;;;;26.40;12.20;;;0.00;99.90;;;;;;4984976;28;20397;-88
2022/01/08 01:02:35;;;;;;;25.20;13.40;;;0.00;99.90;;;;;;4984329;28;20029;-89
2022/01/08 01:05:01;;;;;;;25.98;12.77;;;0.00;99.90;;;;;;4983707;28;20045;-88
2022/01/08 01:07:26;;;;;;;21.58;11.32;;;0.00;99.90;;;;;;4983933;28;20037;-88
2022/01/08 01:09:52;;;;;;;18.15;9.10;;;0.00;99.90;;;;;;4983586;28;20120;-88
2022/01/08 01:12:18;;;;;;;18.85;8.98;;;0.10;99.90;;;;;;4983772;28;20132;-87
2022/01/08 01:14:43;;;;;;;16.02;8.65;;;0.00;99.90;;;;;;4983883;28;20052;-88
2022/01/08 01:17:09;;;;;;;17.58;8.65;;;0.00;99.90;;;;;;4984317;28;20033;-88
2022/01/08 01:19:36;;;;;;;16.30;8.85;;;0.00;99.90;;;;;;4983947;28;20543;-87
2022/01/08 01:22:03;;;;;;;21.75;8.85;;;0.00;99.90;;;;;;4984054;28;20034;-87
2022/01/08 01:24:30;;;;;;;19.05;9.65;;;0.00;99.90;;;;;;5017323;28;20037;-88
2022/01/08 01:49:12;;;;;;;19.65;10.38;;;-0.20;99.90;;;;;;5017342;28;20025;-89
2022/01/08 01:51:38;;;;;;;21.30;10.25;;;-0.10;99.90;;;;;;4984093;28;20022;-89
2022/01/08 01:54:04;;;;;;;16.38;8.50;;;-0.20;99.90;;;;;;4984318;28;20033;-89
2022/01/08 01:56:30;;;;;;;15.98;8.60;;;-0.20;99.90;;;;;;4999632;28;20034;-89
2022/01/08 01:58:56;;;;;;;14.07;6.70;;;-0.20;99.90;;;;;;4999959;28;20397;-88
2022/01/08 02:01:22;;;;;;;14.02;5.97;;;-0.20;99.90;;;;;;4999467;28;20022;-89
2022/01/08 02:03:48;;;;;;;9.55;5.75;;;-0.20;99.90;;;;;;4983870;28;20030;-89
2022/01/08 02:06:13;;;;;;;12.30;6.03;;;-0.20;99.90;;;;;;4983943;28;20445;-89
2022/01/08 02:08:40;;;;;;;10.43;5.40;;;-0.20;99.90;;;;;;4983827;28;20481;-88
2022/01/08 02:11:07;;;;;;;11.90;4.95;;;-0.20;99.90;;;;;;4983566;28;20029;-89
2022/01/08 02:13:34;;;;;;;12.13;5.15;;;-0.20;99.90;;;;;;4999931;28;20366;-89
2022/01/08 02:16:17;;;;;;;10.63;5.03;;;-0.20;99.90;;;;;;4983715;28;20037;-89
2022/01/08 02:18:47;;;;;;;14.73;5.15;;;-0.10;99.90;;;;;;5000192;28;20085;-89
2022/01/08 02:21:15;;;;;;;18.42;5.10;;;-0.10;99.90;;;;;;5000021;28;20030;-89
2022/01/08 02:23:41;;;;;;;15.57;5.20;;;-0.10;99.90;;;;;;4983239;28;20079;-89
2022/01/08 02:26:09;;;;;;;6.82;4.07;;;-0.10;99.90;;;;;;5000507;28;20072;-89
2022/01/08 02:28:36;;;;;;;10.18;4.75;;;-0.10;99.90;;;;;;5000685;28;20033;-89
2022/01/08 02:31:02;;;;;;;16.83;5.18;;;-0.10;99.90;;;;;;4984229;28;20030;-89
2022/01/08 02:33:30;;;;;;;11.55;4.80;;;0.00;99.90;;;;;;4984324;28;20030;-90
2022/01/08 02:35:56;;;;;;;12.13;4.63;;;-0.10;99.90;;;;;;4983312;28;20045;-89
2022/01/08 02:38:22;;;;;;;12.38;4.72;;;-0.10;99.90;;;;;;5000481;28;20022;-89
2022/01/08 02:40:54;;;;;;;9.00;4.28;;;-0.10;99.90;;;;;;4984919;28;20120;-90
2022/01/08 02:43:20;;;;;;;7.75;4.55;;;-0.10;99.90;;;;;;4985114;28;20034;-90
2022/01/08 02:45:46;;;;;;;17.95;5.32;;;-0.10;99.90;;;;;;4984360;28;20026;-90
2022/01/08 02:48:12;;;;;;;18.98;5.97;;;-0.10;99.90;;;;;;5000607;28;20032;-90
2022/01/08 02:50:37;;;;;;;17.45;7.78;;;-0.10;99.90;;;;;;4984059;28;20034;-89
2022/01/08 02:53:03;;;;;;;22.13;8.63;;;-0.10;99.90;;;;;;4984313;28;20034;-90
2022/01/08 02:55:29;;;;;;;16.08;7.30;;;-0.10;99.90;;;;;;5032654;28;20663;-91
2022/01/08 02:57:55;;;;;;;40.55;13.20;;;0.00;99.90;;;;;;4983816;28;20092;-90
2022/01/08 03:00:20;;;;;;;64.90;18.35;;;0.00;99.90;;;;;;4984081;28;20397;-90
2022/01/08 03:03:17;;;;;;;29.33;11.10;;;-0.10;99.90;;;;;;4983199;28;20101;-88
2022/01/08 03:05:43;;;;;;;28.92;11.43;;;-0.10;99.90;;;;;;4984357;28;20110;-90
2022/01/08 03:08:09;;;;;;;27.42;12.43;;;-0.10;99.90;;;;;;4984069;28;20073;-90
2022/01/08 03:10:34;;;;;;;18.65;8.93;;;-0.10;99.90;;;;;;4983620;28;20033;-90
2022/01/08 03:13:02;;;;;;;23.17;9.85;;;-0.10;99.90;;;;;;4983168;28;20034;-90
2022/01/08 03:15:32;;;;;;;22.00;11.60;;;-0.10;99.90;;;;;;4982798;28;20132;-89
2022/01/08 03:17:57;;;;;;;17.65;8.20;;;-0.10;99.90;;;;;;4988394;28;20057;-89
2022/01/08 03:20:23;;;;;;;11.70;7.40;;;-0.10;99.90;;;;;;4982969;28;20026;-88
2022/01/08 03:22:49;;;;;;;16.65;7.28;;;-0.10;99.90;;;;;;4982964;28;20037;-88
2022/01/08 03:25:15;;;;;;;12.27;7.57;;;-0.10;99.90;;;;;;4983006;28;20034;-88
2022/01/08 03:27:41;;;;;;;14.02;7.65;;;-0.10;99.90;;;;;;4983535;28;20040;-89
2022/01/08 03:30:09;;;;;;;11.85;6.88;;;-0.10;99.90;;;;;;4999637;28;20034;-89
2022/01/08 03:32:35;;;;;;;19.08;6.70;;;-0.10;99.90;;;;;;4999464;28;20034;-89
2022/01/08 03:35:01;;;;;;;11.00;5.82;;;-0.10;99.90;;;;;;5015154;28;20034;-89
2022/01/08 03:37:27;;;;;;;12.95;6.05;;;-0.10;99.90;;;;;;5016149;28;20025;-87
2022/01/08 03:39:52;;;;;;;7.75;4.97;;;-0.10;99.90;;;;;;4998087;28;20105;-87
2022/01/08 03:42:18;;;;;;;10.48;6.63;;;-0.10;99.90;;;;;;4998004;28;20042;-87
2022/01/08 03:44:44;;;;;;;14.93;7.80;;;-0.10;99.90;;;;;;4998204;28;20455;-87
2022/01/08 03:50:16;;;;;;;13.68;6.55;;;-0.10;99.90;;;;;;5001820;28;20077;-86
2022/01/08 03:52:43;;;;;;;12.68;5.68;;;-0.10;99.90;;;;;;4998659;28;20038;-88
2022/01/08 03:55:10;;;;;;;7.05;3.92;;;-0.20;99.90;;;;;;4997751;28;20493;-88
2022/01/08 03:57:36;;;;;;;9.20;5.30;;;-0.20;99.90;;;;;;4980847;28;20041;-88
2022/01/08 04:00:02;;;;;;;7.45;4.53;;;-0.20;99.90;;;;;;4980838;28;20018;-88
2022/01/08 04:02:38;;;;;;;7.70;4.40;;;-0.10;99.90;;;;;;5014117;28;20061;-87
2022/01/08 04:05:04;;;;;;;7.60;4.30;;;-0.20;99.90;;;;;;4980460;28;20034;-87
2022/01/08 04:07:29;;;;;;;6.70;4.30;;;-0.20;99.90;;;;;;4980490;28;20025;-86
2022/01/08 04:09:55;;;;;;;5.28;3.10;;;-0.20;99.90;;;;;;5012878;28;20084;-87
2022/01/08 04:12:31;;;;;;;5.07;3.03;;;-0.20;99.90;;;;;;4980577;28;20038;-87
2022/01/08 04:15:05;;;;;;;4.53;2.88;;;-0.20;99.90;;;;;;4980703;28;20031;-87
2022/01/08 04:17:31;;;;;;;3.78;2.42;;;-0.20;99.90;;;;;;4996536;28;20038;-87
2022/01/08 04:19:57;;;;;;;4.82;3.08;;;-0.20;99.90;;;;;;4997029;28;20109;-87
2022/01/08 04:22:24;;;;;;;6.95;3.20;;;-0.20;99.90;;;;;;4995903;28;20026;-86
2022/01/08 04:25:27;;;;;;;3.55;2.25;;;-0.20;99.90;;;;;;4996091;28;20500;-87
2022/01/08 04:27:53;;;;;;;2.55;1.70;;;-0.10;99.90;;;;;;4980448;28;20030;-86
2022/01/08 04:30:19;;;;;;;4.00;2.35;;;-0.10;99.90;;;;;;4996307;28;20092;-86
2022/01/08 04:32:45;;;;;;;3.05;1.83;;;-0.20;99.90;;;;;;4979847;28;20034;-87
2022/01/08 04:35:11;;;;;;;2.67;1.90;;;-0.20;99.90;;;;;;4980379;28;20034;-87
2022/01/08 04:37:36;;;;;;;2.22;1.48;;;-0.20;99.90;;;;;;4996248;28;20030;-88
2022/01/08 04:40:03;;;;;;;2.03;1.55;;;-0.10;99.90;;;;;;4980420;28;20034;-87
2022/01/08 04:42:29;;;;;;;1.98;1.50;;;-0.10;99.90;;;;;;4996336;28;20030;-86
2022/01/08 04:44:55;;;;;;;2.03;1.40;;;-0.10;99.90;;;;;;4996016;28;20034;-86
2022/01/08 04:47:21;;;;;;;2.20;1.80;;;-0.10;99.90;;;;;;4979897;28;20397;-86
2022/01/08 04:49:46;;;;;;;3.10;1.90;;;-0.10;99.90;;;;;;4996643;28;20037;-86
2022/01/08 04:52:12;;;;;;;3.22;2.35;;;-0.10;99.90;;;;;;4979974;28;20053;-86
2022/01/08 04:54:38;;;;;;;2.60;2.05;;;-0.10;99.90;;;;;;4996326;28;20057;-86
2022/01/08 04:57:03;;;;;;;2.17;1.50;;;-0.10;99.90;;;;;;4995691;28;20037;-86
2022/01/08 04:59:29;;;;;;;1.98;1.77;;;-0.10;99.90;;;;;;4981417;28;20433;-86
2022/01/08 05:01:55;;;;;;;14.80;6.90;;;0.00;99.90;;;;;;5000144;28;20535;-86
2022/01/08 05:04:21;;;;;;;16.10;6.53;;;0.00;99.90;;;;;;4999469;28;20363;-86
2022/01/08 05:06:46;;;;;;;3.80;2.30;;;0.00;99.90;;;;;;4999564;28;20038;-86
2022/01/08 05:09:24;;;;;;;2.80;2.33;;;0.00;99.90;;;;;;4983511;28;20088;-85
2022/01/08 05:11:50;;;;;;;3.58;1.80;;;-0.10;99.90;;;;;;4983534;28;20037;-85
2022/01/08 05:14:50;;;;;;;2.30;1.95;;;0.00;99.90;;;;;;4983309;28;20034;-85
2022/01/08 05:17:16;;;;;;;3.10;2.20;;;0.00;99.90;;;;;;4982830;28;20038;-85
2022/01/08 05:19:50;;;;;;;2.05;1.70;;;-0.10;99.90;;;;;;5015357;28;20121;-85
2022/01/08 05:22:31;;;;;;;3.38;1.80;;;0.00;99.90;;;;;;4982763;28;20034;-84
2022/01/08 05:24:57;;;;;;;2.47;2.03;;;-0.10;99.90;;;;;;4998812;28;20120;-85
2022/01/08 05:27:23;;;;;;;18.33;4.68;;;0.00;99.90;;;;;;4999104;28;20384;-85
2022/01/08 05:29:51;;;;;;;93.93;6.97;;;-0.10;99.90;;;;;;5015992;28;20547;-85
2022/01/08 05:32:18;;;;;;;271.48;16.70;;;-0.10;99.90;;;;;;4998701;28;20038;-85
2022/01/08 05:34:54;;;;;;;75.18;7.75;;;-0.10;99.90;;;;;;4998790;28;20038;-85
2022/01/08 05:37:26;;;;;;;245.27;14.43;;;-0.20;99.90;;;;;;5031619;28;20640;-85
2022/01/08 05:39:53;;;;;;;727.63;43.92;;;-0.20;99.90;;;;;;4982892;28;20088;-85
2022/01/08 05:42:19;;;;;;;429.10;25.38;;;-0.20;99.90;;;;;;4998792;28;20508;-85
2022/01/08 05:44:45;;;;;;;7.80;4.10;;;-0.20;99.90;;;;;;5016259;28;20060;-85
2022/01/08 05:47:11;;;;;;;5.15;3.40;;;-0.20;99.90;;;;;;4998729;28;20038;-85
2022/01/08 05:49:37;;;;;;;2.55;1.02;;;-0.20;99.90;;;;;;4982511;28;20041;-86
2022/01/08 05:52:03;;;;;;;1.75;1.00;;;-0.20;99.90;;;;;;4999377;28;20483;-86
2022/01/08 05:54:35;;;;;;;3.60;0.90;;;-0.40;99.90;;;;;;4998530;28;20095;-86
2022/01/08 05:57:00;;;;;;;0.82;0.60;;;-0.40;99.90;;;;;;4998438;28;20034;-86
2022/01/08 05:59:27;;;;;;;0.98;0.70;;;-0.40;99.90;;;;;;4982539;28;20084;-85
2022/01/08 06:01:56;;;;;;;2.22;0.80;;;-0.50;99.90;;;;;;4998911;28;20382;-86
2022/01/08 06:04:22;;;;;;;1.10;0.93;;;-0.50;99.90;;;;;;5016292;28;20030;-86
2022/01/08 06:06:48;;;;;;;6.53;2.03;;;-0.50;99.90;;;;;;4982838;28;20569;-86
2022/01/08 06:09:14;;;;;;;0.75;0.75;;;-0.50;99.90;;;;;;4998768;28;20037;-85
2022/01/08 06:11:40;;;;;;;0.90;0.80;;;-0.50;99.90;;;;;;4998343;28;20584;-86
2022/01/08 06:14:06;;;;;;;1.20;1.10;;;-0.50;99.90;;;;;;5015852;28;20037;-85
2022/01/08 06:16:37;;;;;;;0.90;0.80;;;-0.50;99.90;;;;;;4998402;28;20034;-85
2022/01/08 06:19:06;;;;;;;1.08;0.98;;;-0.50;99.90;;;;;;4999043;28;20026;-86
2022/01/08 06:21:32;;;;;;;1.13;0.82;;;-0.50;99.90;;;;;;4998639;28;20496;-86
2022/01/08 06:23:58;;;;;;;3.35;0.85;;;-0.50;99.90;;;;;;4998605;28;20033;-85
2022/01/08 06:26:24;;;;;;;2.97;1.15;;;-0.50;99.90;;;;;;4999089;28;20030;-86
2022/01/08 06:28:51;;;;;;;1.00;0.90;;;-0.50;99.90;;;;;;5000250;28;20044;-86
2022/01/08 06:31:22;;;;;;;2.22;1.23;;;-0.50;99.90;;;;;;5000173;28;20033;-85
2022/01/08 06:33:50;;;;;;;1.67;1.33;;;-0.50;99.90;;;;;;4983519;28;20105;-86
2022/01/08 06:36:18;;;;;;;1.35;1.25;;;-0.50;99.90;;;;;;4997999;28;20098;-84
2022/01/08 06:38:46;;;;;;;1.33;1.08;;;-0.50;99.90;;;;;;4981753;28;20022;-85
2022/01/08 06:41:12;;;;;;;1.50;1.40;;;-0.50;99.90;;;;;;4981790;28;20478;-84
2022/01/08 06:43:37;;;;;;;1.88;1.58;;;-0.60;99.90;;;;;;4980731;28;20029;-85
2022/01/08 06:46:03;;;;;;;1.85;1.40;;;-0.60;99.90;;;;;;5014534;28;20030;-85
2022/01/08 06:48:29;;;;;;;5.22;1.40;;;-0.50;99.90;;;;;;4980474;28;20067;-83
2022/01/08 06:50:55;;;;;;;1.83;1.50;;;-0.60;99.90;;;;;;4997361;28;20029;-86
2022/01/08 06:53:20;;;;;;;3.15;1.85;;;-0.60;99.90;;;;;;4997024;28;20088;-85
2022/01/08 06:55:46;;;;;;;4.45;1.85;;;-0.60;99.90;;;;;;5015152;28;20030;-85
2022/01/08 06:58:12;;;;;;;3.60;2.30;;;-0.60;99.90;;;;;;4997753;28;20030;-84
2022/01/08 07:00:39;;;;;;;7.28;2.20;;;-0.70;99.90;;;;;;4984452;28;20077;-84
2022/01/08 07:03:10;;;;;;;2.42;1.98;;;-0.70;99.90;;;;;;4982378;28;20050;-84
2022/01/08 07:05:39;;;;;;;2.53;2.15;;;-0.70;99.90;;;;;;5032121;28;20524;-85
2022/01/08 07:08:06;;;;;;;4.18;2.40;;;-0.70;99.90;;;;;;4999125;28;20458;-84
2022/01/08 07:10:32;;;;;;;4.47;2.33;;;-0.70;99.90;;;;;;4980664;28;20060;-84
2022/01/08 07:16:48;;;;;;;2.30;1.52;;;-0.70;99.90;;;;;;5014865;28;20121;-84
2022/01/08 07:19:13;;;;;;;4.90;2.53;;;-0.60;99.90;;;;;;4996866;28;20030;-85
2022/01/08 07:21:39;;;;;;;5.82;2.95;;;-0.60;99.90;;;;;;4980283;28;20044;-84
2022/01/08 07:24:05;;;;;;;3.90;2.70;;;-0.60;99.90;;;;;;4980062;28;20033;-83
2022/01/08 07:26:31;;;;;;;4.72;2.80;;;-0.60;99.90;;;;;;4996673;28;20033;-83
2022/01/08 07:28:56;;;;;;;7.13;3.10;;;-0.60;99.90;;;;;;4996169;28;20466;-83
2022/01/08 07:31:22;;;;;;;5.88;3.97;;;-0.60;99.90;;;;;;4996466;28;20389;-83
2022/01/08 07:33:49;;;;;;;8.68;4.13;;;-0.60;99.90;;;;;;4979732;28;20037;-83
2022/01/08 07:36:17;;;;;;;7.10;4.45;;;-0.50;99.90;;;;;;4996193;28;20029;-84
2022/01/08 07:38:44;;;;;;;7.53;4.45;;;-0.50;99.90;;;;;;4980185;28;20489;-83
2022/01/08 07:41:09;;;;;;;9.65;5.50;;;-0.50;99.90;;;;;;4998338;28;20390;-84
2022/01/08 07:43:35;;;;;;;10.95;6.65;;;-0.60;99.90;;;;;;4995924;28;20125;-82
2022/01/08 07:46:01;;;;;;;12.98;6.68;;;-0.50;99.90;;;;;;4996333;28;20030;-82
2022/01/08 07:48:26;;;;;;;13.80;6.85;;;-0.50;99.90;;;;;;4995756;28;20030;-83
2022/01/08 07:50:55;;;;;;;12.32;6.40;;;-0.50;99.90;;;;;;4998087;28;20033;-82
2022/01/08 07:53:21;;;;;;;16.33;8.82;;;-0.50;99.90;;;;;;4995930;28;20037;-83
2022/01/08 07:55:47;;;;;;;17.08;7.50;;;-0.50;99.90;;;;;;5013763;28;20398;-82
2022/01/08 07:58:20;;;;;;;23.65;9.77;;;-0.50;99.90;;;;;;4979770;28;20069;-83
2022/01/08 08:00:47;;;;;;;19.20;8.82;;;-0.50;99.90;;;;;;4980244;28;20065;-83
2022/01/08 08:03:13;;;;;;;15.90;8.38;;;-0.50;99.90;;;;;;4995611;28;20045;-83
2022/01/08 08:05:38;;;;;;;14.15;7.03;;;-0.50;99.90;;;;;;4995455;28;20109;-83
2022/01/08 08:08:04;;;;;;;35.38;14.20;;;-0.50;99.90;;;;;;4995936;28;20527;-83
2022/01/08 08:10:31;;;;;;;23.05;12.73;;;-0.50;99.90;;;;;;4979527;28;20192;-84
2022/01/08 08:12:56;;;;;;;22.35;9.77;;;-0.50;99.90;;;;;;4979669;28;20033;-83
2022/01/08 08:15:22;;;;;;;18.48;9.27;;;-0.40;99.90;;;;;;4979319;28;20026;-84
2022/01/08 08:17:48;;;;;;;20.67;9.57;;;-0.40;99.90;;;;;;4979394;28;20052;-83
2022/01/08 08:20:14;;;;;;;19.92;11.02;;;-0.30;99.90;;;;;;5028919;28;20106;-84
2022/01/08 08:22:40;;;;;;;18.58;10.27;;;-0.30;99.90;;;;;;4995827;28;20553;-84
2022/01/08 08:25:10;;;;;;;17.67;8.82;;;-0.40;99.90;;;;;;4995562;28;20029;-84
2022/01/08 08:27:37;;;;;;;22.80;10.77;;;-0.30;99.90;;;;;;4995981;28;20452;-84
2022/01/08 08:30:03;;;;;;;19.33;11.88;;;-0.40;99.90;;;;;;4997725;28;20105;-84
2022/01/08 08:32:30;;;;;;;35.20;16.80;;;-0.40;99.90;;;;;;4996373;28;20026;-84
2022/01/08 08:34:56;;;;;;;27.77;13.77;;;-0.50;99.90;;;;;;4998666;28;20084;-85
2022/01/08 08:37:22;;;;;;;34.65;14.02;;;-0.50;99.90;;;;;;4983855;28;20493;-84
2022/01/08 08:39:48;;;;;;;31.85;13.35;;;-0.40;99.90;;;;;;5017008;28;20050;-84
2022/01/08 08:42:14;;;;;;;33.35;14.63;;;-0.30;99.90;;;;;;4983722;28;20084;-84
2022/01/08 08:44:49;;;;;;;36.72;14.35;;;-0.30;99.90;;;;;;4999509;28;20030;-85
2022/01/08 08:47:14;;;;;;;34.97;14.70;;;-0.30;99.90;;;;;;5017239;28;20084;-84
2022/01/08 08:49:40;;;;;;;38.30;17.05;;;-0.20;99.90;;;;;;4983221;28;20485;-84
2022/01/08 08:52:06;;;;;;;35.00;16.50;;;-0.20;99.90;;;;;;4999576;28;20084;-84
2022/01/08 08:54:32;;;;;;;52.47;20.25;;;-0.10;99.90;;;;;;4998987;28;20069;-83
2022/01/08 08:56:58;;;;;;;37.63;18.27;;;-0.20;99.90;;;;;;4999008;28;20528;-84
2022/01/08 08:59:24;;;;;;;43.40;21.55;;;-0.10;99.90;;;;;;4999251;28;20366;-83
2022/01/08 09:01:50;;;;;;;53.60;18.20;;;-0.10;99.90;;;;;;4982769;28;20393;-84
2022/01/08 09:04:43;;;;;;;28.30;11.90;;;-0.10;99.90;;;;;;4982459;28;20034;-84
2022/01/08 09:07:10;;;;;;;24.77;12.90;;;-0.10;99.90;;;;;;5000656;28;20053;-84
2022/01/08 09:09:35;;;;;;;33.28;13.23;;;-0.10;99.90;;;;;;4984277;28;20044;-84
2022/01/08 09:12:02;;;;;;;30.75;14.85;;;-0.10;99.90;;;;;;5000520;28;20026;-83
2022/01/08 09:14:28;;;;;;;44.63;18.45;;;-0.10;99.90;;;;;;5015936;28;20046;-83
2022/01/08 09:16:57;;;;;;;51.20;22.42;;;-0.10;99.90;;;;;;4998565;28;20042;-84
2022/01/08 09:19:23;;;;;;;38.83;17.08;;;-0.10;99.90;;;;;;5016117;28;20041;-84
2022/01/08 09:21:51;;;;;;;37.17;19.90;;;-0.10;99.90;;;;;;4998729;28;20057;-84
2022/01/08 09:24:21;;;;;;;41.40;18.65;;;-0.10;99.90;;;;;;4999429;28;20033;-84
2022/01/08 09:26:48;;;;;;;38.10;19.95;;;-0.10;99.90;;;;;;4999174;28;20029;-84
2022/01/08 09:29:15;;;;;;;32.53;15.93;;;-0.10;99.90;;;;;;4982782;28;20068;-84
2022/01/08 09:31:40;;;;;;;37.42;16.73;;;-0.10;99.90;;;;;;4982485;28;20034;-85
2022/01/08 09:34:07;;;;;;;34.35;15.13;;;-0.10;99.90;;;;;;5015993;28;20029;-83
2022/01/08 09:36:33;;;;;;;26.88;13.20;;;-0.10;99.90;;;;;;4999267;28;20033;-84
2022/01/08 09:38:59;;;;;;;38.15;13.93;;;-0.10;99.90;;;;;;4998495;28;20485;-83
2022/01/08 09:41:25;;;;;;;33.50;12.05;;;-0.10;99.90;;;;;;4998160;28;20034;-83
2022/01/08 09:43:51;;;;;;;45.03;14.45;;;-0.20;99.90;;;;;;4981715;28;20029;-83
2022/01/08 09:46:19;;;;;;;73.72;33.25;;;-0.20;99.90;;;;;;4997960;28;20037;-83
2022/01/08 09:48:45;;;;;;;34.53;14.32;;;-0.10;99.90;;;;;;4998241;28;20029;-83
2022/01/08 09:51:11;;;;;;;32.38;13.55;;;-0.10;99.90;;;;;;4998367;28;20176;-82
2022/01/08 09:53:37;;;;;;;43.20;15.23;;;0.00;99.90;;;;;;5015494;28;20048;-83
2022/01/08 09:56:04;;;;;;;15.55;8.75;;;0.00;99.90;;;;;;4981812;28;20460;-83
2022/01/08 09:58:30;;;;;;;16.58;8.45;;;0.00;99.90;;;;;;4998038;28;20119;-83
2022/01/08 10:00:56;;;;;;;21.50;8.10;;;0.00;99.90;;;;;;4998087;28;20037;-83
2022/01/08 10:03:27;;;;;;;21.20;8.82;;;0.00;99.90;;;;;;4997653;28;20030;-83
2022/01/08 10:05:55;;;;;;;14.90;5.82;;;0.10;99.90;;;;;;4998095;28;20052;-83
2022/01/08 10:08:26;;;;;;;26.70;8.13;;;0.10;99.90;;;;;;4998065;28;20068;-84
2022/01/08 10:11:00;;;;;;;16.50;6.10;;;0.10;99.90;;;;;;5015454;28;20078;-83
2022/01/08 10:13:32;;;;;;;15.68;5.85;;;0.10;99.90;;;;;;4998013;28;20034;-84
2022/01/08 10:18:44;;;;;;;14.25;6.53;;;0.20;99.90;;;;;;5015476;28;20046;-85
2022/01/08 10:21:14;;;;;;;22.33;8.02;;;0.30;99.90;;;;;;4981779;28;20026;-84
2022/01/08 10:23:43;;;;;;;15.00;6.30;;;0.30;99.90;;;;;;4997626;28;20030;-84
2022/01/08 10:26:13;;;;;;;13.48;6.25;;;0.40;99.90;;;;;;4997750;28;20022;-84
2022/01/08 10:28:50;;;;;;;15.07;5.55;;;0.30;99.90;;;;;;4981577;28;20046;-84
2022/01/08 10:31:24;;;;;;;23.55;9.05;;;0.30;99.90;;;;;;5015386;28;20030;-85
2022/01/08 10:34:02;;;;;;;17.77;7.40;;;0.30;99.90;;;;;;4981332;28;20036;-85
2022/01/08 10:36:35;;;;;;;17.35;6.70;;;0.30;99.90;;;;;;5015589;28;20034;-85
2022/01/08 10:39:04;;;;;;;18.65;6.63;;;0.30;99.90;;;;;;4997135;28;20479;-85
2022/01/08 10:41:30;;;;;;;15.50;6.43;;;0.20;99.90;;;;;;4999686;28;20034;-84
2022/01/08 10:44:21;;;;;;;12.80;6.55;;;0.20;99.90;;;;;;4998124;28;20113;-85
2022/01/08 10:46:55;;;;;;;19.73;6.82;;;0.20;99.90;;;;;;4998320;28;20030;-86
2022/01/08 10:49:37;;;;;;;19.10;7.60;;;0.20;99.90;;;;;;4998610;28;20029;-85
2022/01/08 10:52:06;;;;;;;16.00;6.53;;;0.20;99.90;;;;;;4998406;28;20033;-85
2022/01/08 10:54:54;;;;;;;25.15;10.20;;;0.30;99.90;;;;;;4981293;28;20544;-86
2022/01/08 10:57:31;;;;;;;16.90;8.25;;;0.40;99.90;;;;;;4997308;28;20050;-85
2022/01/08 10:59:56;;;;;;;19.73;7.45;;;0.40;99.90;;;;;;4998265;28;20394;-85
2022/01/08 11:02:43;;;;;;;15.52;6.68;;;0.40;99.90;;;;;;5031119;28;20034;-86
2022/01/08 11:05:10;;;;;;;24.55;10.68;;;0.30;99.90;;;;;;4997991;28;20061;-86
2022/01/08 11:07:38;;;;;;;24.73;9.95;;;0.30;99.90;;;;;;4981027;28;20533;-85
2022/01/08 11:10:16;;;;;;;28.45;11.88;;;0.20;99.90;;;;;;4981458;28;20041;-86
2022/01/08 11:12:45;;;;;;;18.13;6.50;;;0.40;99.90;;;;;;4982235;28;20119;-86
2022/01/08 11:15:34;;;;;;;15.85;6.53;;;0.30;99.90;;;;;;4981485;28;20074;-87
2022/01/08 11:18:00;;;;;;;16.25;7.32;;;0.20;99.90;;;;;;4997410;28;20037;-86
2022/01/08 11:20:29;;;;;;;21.88;9.48;;;0.40;99.90;;;;;;4997563;28;20532;-86
2022/01/08 11:22:57;;;;;;;17.15;7.25;;;0.30;99.90;;;;;;4997381;28;20026;-86
2022/01/08 11:25:35;;;;;;;18.23;7.53;;;0.30;99.90;;;;;;4980739;28;20065;-87
2022/01/08 11:28:13;;;;;;;13.32;6.95;;;0.40;99.90;;;;;;4981133;28;20128;-87
2022/01/08 11:30:55;;;;;;;23.92;8.82;;;0.60;99.90;;;;;;4981543;28;20409;-87
2022/01/08 11:33:29;;;;;;;12.82;6.50;;;0.80;99.90;;;;;;4997433;28;20040;-86
2022/01/08 11:35:56;;;;;;;22.10;6.88;;;0.80;99.90;;;;;;4981276;28;20056;-87
2022/01/08 11:38:23;;;;;;;21.73;6.90;;;0.80;99.90;;;;;;4997908;28;20436;-87
2022/01/08 11:40:51;;;;;;;22.05;7.70;;;0.80;99.90;;;;;;4981442;28;20474;-87
2022/01/08 11:43:19;;;;;;;15.65;7.20;;;0.80;99.90;;;;;;5015097;28;20492;-87
2022/01/08 11:45:48;;;;;;;13.48;7.35;;;1.00;99.90;;;;;;4997234;28;20034;-86
2022/01/08 11:48:17;;;;;;;17.52;6.43;;;1.20;99.90;;;;;;4996981;28;20084;-86
2022/01/08 11:50:54;;;;;;;21.83;6.10;;;1.30;99.90;;;;;;4996911;28;20041;-87
2022/01/08 11:53:28;;;;;;;18.67;6.80;;;1.40;99.90;;;;;;4980812;28;20033;-86
2022/01/08 11:56:01;;;;;;;15.77;6.20;;;1.10;99.90;;;;;;4997560;28;20072;-87
2022/01/08 11:58:38;;;;;;;13.55;5.68;;;1.00;99.90;;;;;;4997622;28;20117;-86
2022/01/08 12:01:11;;;;;;;23.52;7.00;;;0.90;99.90;;;;;;4996193;28;20500;-85
2022/01/08 12:03:50;;;;;;;19.20;6.72;;;0.70;99.90;;;;;;4995960;28;20137;-85
2022/01/08 12:06:18;;;;;;;14.90;7.25;;;0.60;99.90;;;;;;4980201;28;20129;-84
2022/01/08 12:09:20;;;;;;;21.50;7.70;;;0.50;99.90;;;;;;4979777;28;20026;-83
2022/01/08 12:11:51;;;;;;;14.50;6.68;;;0.60;99.90;;;;;;4979585;28;20045;-83
2022/01/08 12:14:30;;;;;;;19.35;8.93;;;0.60;99.90;;;;;;4995603;28;20437;-83
2022/01/08 12:16:58;;;;;;;25.65;8.23;;;0.70;99.90;;;;;;4978608;28;20552;-82
2022/01/08 12:19:37;;;;;;;19.95;6.22;;;0.70;99.90;;;;;;4995429;28;20034;-83
2022/01/08 12:22:18;;;;;;;15.98;7.22;;;0.80;99.90;;;;;;5028461;28;20125;-85
2022/01/08 12:24:55;;;;;;;22.25;6.45;;;0.80;99.90;;;;;;5013049;28;20030;-83
2022/01/08 12:27:39;;;;;;;18.08;5.68;;;0.80;99.90;;;;;;4981684;28;20038;-84
2022/01/08 12:30:30;;;;;;;14.57;6.78;;;0.70;99.90;;;;;;4979419;28;20065;-84
2022/01/08 12:33:17;;;;;;;22.88;5.40;;;0.80;99.90;;;;;;4985118;28;20117;-84
2022/01/08 12:35:43;;;;;;;15.05;5.72;;;0.70;99.90;;;;;;4995754;28;20034;-84
2022/01/08 12:38:25;;;;;;;10.15;4.13;;;0.80;99.90;;;;;;4979325;28;20045;-84
2022/01/08 12:40:51;;;;;;;;;;;0.80;99.90;;;;;;5013714;28;20049;-85
2022/01/08 12:43:36;;;;;;;9.52;4.88;;;0.90;99.90;;;;;;4995604;28;19996;-84
2022/01/08 12:46:17;;;;;;;9.52;5.35;;;1.00;99.90;;;;;;4995469;28;20034;-84
2022/01/08 12:49:10;;;;;;;10.70;4.53;;;1.10;99.90;;;;;;5030118;28;20041;-83
2022/01/08 12:51:48;;;;;;;11.02;3.90;;;1.00;99.90;;;;;;4979270;28;20044;-84
2022/01/08 12:54:18;;;;;;;12.35;5.78;;;1.10;99.90;;;;;;4995155;28;20041;-84
2022/01/08 12:56:49;;;;;;;6.45;4.38;;;1.10;99.90;;;;;;4996552;28;20038;-82
2022/01/08 12:59:15;;;;;;;16.95;5.38;;;1.10;99.90;;;;;;4996006;28;20516;-83
2022/01/08 13:01:48;;;;;;;13.15;5.38;;;1.10;99.90;;;;;;4995327;28;20026;-83
2022/01/08 13:04:17;;;;;;;11.07;4.60;;;1.10;99.90;;;;;;4994922;28;20034;-84
2022/01/08 13:06:44;;;;;;;13.85;4.68;;;1.20;99.90;;;;;;5013124;28;20034;-83
2022/01/08 13:09:11;;;;;;;14.68;6.10;;;1.20;99.90;;;;;;4995318;28;20033;-83
2022/01/08 13:11:39;;;;;;;11.30;5.30;;;1.20;99.90;;;;;;4995243;28;20029;-83
2022/01/08 13:14:08;;;;;;;18.15;6.28;;;1.10;99.90;;;;;;4994842;28;20053;-83
2022/01/08 13:16:45;;;;;;;20.13;6.43;;;1.20;99.90;;;;;;4978385;28;20041;-83
2022/01/08 13:19:13;;;;;;;20.50;6.47;;;1.10;99.90;;;;;;4994637;28;20489;-83
2022/01/08 13:21:42;;;;;;;15.70;7.30;;;1.00;99.90;;;;;;4997763;28;20041;-83